Terminal Aerodrome Forecast
Issued by NWS Houston/Galveston TX

Home | Current Version | Previous Version | Text Only | Print | Product List | Glossary On
Versions: 1 2 3 4 5 6 7 8 9 10 11 12 13 14 15 16 17 18 19 20 21 22 23 24 25 26 27 28 29 30 31 32 33 34 35 36 37 38 39 40 41 42 43 44 45 46 47 48 49 50
000
FTUS44 KHGX 281140
TAFHOU
TAF
KHOU 281140Z 2812/0112 07010KT P6SM VCSH BKN045 OVC080
     FM281500 06013KT P6SM SCT015 BKN030 OVC050
     FM282200 10011KT P6SM SCT035 BKN060
     FM010500 10008KT 5SM BR VCSH BKN015 OVC025
     FM010800 09009KT 2SM BR VCSH BKN008 OVC012=

USA.gov is the U.S. government's official web portal to all federal, state and local government web resources and services.